sensor_id;sensor_type;location;lat;lon;timestamp;P1;durP1;ratioP1;P2;durP2;ratioP2
3211;SDS011;1618;47.056;15.472;2024-03-08T00:02:15;23.50;;;22.30;;
3211;SDS011;1618;47.056;15.472;2024-03-08T00:04:43;23.70;;;22.50;;
3211;SDS011;1618;47.056;15.472;2024-03-08T00:07:12;24.40;;;23.20;;
3211;SDS011;1618;47.056;15.472;2024-03-08T00:09:41;23.93;;;22.73;;
3211;SDS011;1618;47.056;15.472;2024-03-08T00:12:09;23.40;;;22.30;;
3211;SDS011;1618;47.056;15.472;2024-03-08T00:14:36;24.20;;;23.00;;
3211;SDS011;1618;47.056;15.472;2024-03-08T00:17:04;23.20;;;22.10;;
3211;SDS011;1618;47.056;15.472;2024-03-08T00:19:32;22.50;;;21.40;;
3211;SDS011;1618;47.056;15.472;2024-03-08T00:22:00;23.90;;;22.70;;
3211;SDS011;1618;47.056;15.472;2024-03-08T00:24:28;23.30;;;22.20;;
3211;SDS011;1618;47.056;15.472;2024-03-08T00:26:58;22.80;;;21.70;;
3211;SDS011;1618;47.056;15.472;2024-03-08T00:29:27;22.13;;;21.03;;
3211;SDS011;1618;47.056;15.472;2024-03-08T00:31:56;22.90;;;21.80;;
3211;SDS011;1618;47.056;15.472;2024-03-08T00:34:23;22.77;;;21.67;;
3211;SDS011;1618;47.056;15.472;2024-03-08T00:36:51;22.40;;;21.30;;
3211;SDS011;1618;47.056;15.472;2024-03-08T00:39:19;22.93;;;21.83;;
3211;SDS011;1618;47.056;15.472;2024-03-08T00:41:49;23.30;;;22.10;;
3211;SDS011;1618;47.056;15.472;2024-03-08T00:44:17;23.50;;;22.30;;
3211;SDS011;1618;47.056;15.472;2024-03-08T00:46:50;22.57;;;21.47;;
3211;SDS011;1618;47.056;15.472;2024-03-08T00:49:17;22.70;;;21.60;;
3211;SDS011;1618;47.056;15.472;2024-03-08T00:51:46;23.00;;;21.90;;
3211;SDS011;1618;47.056;15.472;2024-03-08T00:54:14;23.10;;;22.00;;
3211;SDS011;1618;47.056;15.472;2024-03-08T00:56:43;22.40;;;21.30;;
3211;SDS011;1618;47.056;15.472;2024-03-08T00:59:12;22.93;;;21.83;;
3211;SDS011;1618;47.056;15.472;2024-03-08T01:01:41;22.40;;;21.30;;
3211;SDS011;1618;47.056;15.472;2024-03-08T01:04:09;22.33;;;21.23;;
3211;SDS011;1618;47.056;15.472;2024-03-08T01:06:36;22.90;;;21.80;;
3211;SDS011;1618;47.056;15.472;2024-03-08T01:09:05;22.93;;;21.83;;
3211;SDS011;1618;47.056;15.472;2024-03-08T01:11:32;24.20;;;23.10;;
3211;SDS011;1618;47.056;15.472;2024-03-08T01:14:01;23.10;;;22.00;;
3211;SDS011;1618;47.056;15.472;2024-03-08T01:16:29;23.03;;;21.93;;
3211;SDS011;1618;47.056;15.472;2024-03-08T01:18:59;24.27;;;23.17;;
3211;SDS011;1618;47.056;15.472;2024-03-08T01:21:28;23.80;;;22.60;;
3211;SDS011;1618;47.056;15.472;2024-03-08T01:23:56;23.83;;;22.63;;
3211;SDS011;1618;47.056;15.472;2024-03-08T01:26:23;24.20;;;23.00;;
3211;SDS011;1618;47.056;15.472;2024-03-08T01:28:51;24.30;;;23.10;;
3211;SDS011;1618;47.056;15.472;2024-03-08T01:31:18;24.30;;;23.10;;
3211;SDS011;1618;47.056;15.472;2024-03-08T01:33:47;24.77;;;23.47;;
3211;SDS011;1618;47.056;15.472;2024-03-08T01:36:16;25.00;;;23.70;;
3211;SDS011;1618;47.056;15.472;2024-03-08T01:38:44;24.50;;;23.30;;
3211;SDS011;1618;47.056;15.472;2024-03-08T01:41:14;25.33;;;24.03;;
3211;SDS011;1618;47.056;15.472;2024-03-08T01:43:43;24.57;;;23.37;;
3211;SDS011;1618;47.056;15.472;2024-03-08T01:46:11;24.17;;;22.97;;
3211;SDS011;1618;47.056;15.472;2024-03-08T01:48:40;23.80;;;22.60;;
3211;SDS011;1618;47.056;15.472;2024-03-08T01:51:10;23.70;;;22.50;;
3211;SDS011;1618;47.056;15.472;2024-03-08T01:53:39;23.20;;;22.10;;
3211;SDS011;1618;47.056;15.472;2024-03-08T01:56:09;23.20;;;22.10;;
3211;SDS011;1618;47.056;15.472;2024-03-08T01:58:42;23.20;;;22.10;;
3211;SDS011;1618;47.056;15.472;2024-03-08T02:01:10;22.33;;;21.23;;
3211;SDS011;1618;47.056;15.472;2024-03-08T02:03:39;23.43;;;22.33;;
3211;SDS011;1618;47.056;15.472;2024-03-08T02:06:08;22.80;;;21.70;;
3211;SDS011;1618;47.056;15.472;2024-03-08T02:08:37;22.80;;;21.70;;
3211;SDS011;1618;47.056;15.472;2024-03-08T02:11:05;22.60;;;21.50;;
3211;SDS011;1618;47.056;15.472;2024-03-08T02:13:33;22.20;;;21.17;;
3211;SDS011;1618;47.056;15.472;2024-03-08T02:16:01;22.03;;;21.03;;
3211;SDS011;1618;47.056;15.472;2024-03-08T02:18:29;21.73;;;20.73;;
3211;SDS011;1618;47.056;15.472;2024-03-08T02:20:59;22.60;;;21.50;;
3211;SDS011;1618;47.056;15.472;2024-03-08T02:23:29;22.80;;;21.70;;
3211;SDS011;1618;47.056;15.472;2024-03-08T02:25:59;22.60;;;21.50;;
3211;SDS011;1618;47.056;15.472;2024-03-08T02:28:27;22.90;;;21.80;;
3211;SDS011;1618;47.056;15.472;2024-03-08T02:30:55;23.00;;;21.90;;
3211;SDS011;1618;47.056;15.472;2024-03-08T02:33:23;22.50;;;21.40;;
3211;SDS011;1618;47.056;15.472;2024-03-08T02:35:51;21.50;;;20.50;;
3211;SDS011;1618;47.056;15.472;2024-03-08T02:38:21;22.03;;;21.03;;
3211;SDS011;1618;47.056;15.472;2024-03-08T02:40:50;22.00;;;21.00;;
3211;SDS011;1618;47.056;15.472;2024-03-08T02:43:22;22.00;;;21.00;;
3211;SDS011;1618;47.056;15.472;2024-03-08T02:45:52;21.70;;;20.70;;
3211;SDS011;1618;47.056;15.472;2024-03-08T02:48:21;22.40;;;21.30;;
3211;SDS011;1618;47.056;15.472;2024-03-08T02:50:48;22.47;;;21.37;;
3211;SDS011;1618;47.056;15.472;2024-03-08T02:53:17;22.97;;;21.87;;
3211;SDS011;1618;47.056;15.472;2024-03-08T02:55:46;23.93;;;22.83;;
3211;SDS011;1618;47.056;15.472;2024-03-08T02:58:13;23.53;;;22.43;;
3211;SDS011;1618;47.056;15.472;2024-03-08T03:00:41;24.80;;;23.60;;
3211;SDS011;1618;47.056;15.472;2024-03-08T03:03:09;24.40;;;23.20;;
3211;SDS011;1618;47.056;15.472;2024-03-08T03:05:38;24.50;;;23.30;;
3211;SDS011;1618;47.056;15.472;2024-03-08T03:08:06;24.30;;;23.10;;
3211;SDS011;1618;47.056;15.472;2024-03-08T03:10:35;23.57;;;22.47;;
3211;SDS011;1618;47.056;15.472;2024-03-08T03:13:05;23.10;;;22.00;;
3211;SDS011;1618;47.056;15.472;2024-03-08T03:15:35;23.90;;;22.70;;
3211;SDS011;1618;47.056;15.472;2024-03-08T03:18:03;23.30;;;22.20;;
3211;SDS011;1618;47.056;15.472;2024-03-08T03:20:33;22.70;;;21.60;;
3211;SDS011;1618;47.056;15.472;2024-03-08T03:23:06;23.10;;;22.00;;
3211;SDS011;1618;47.056;15.472;2024-03-08T03:25:36;22.20;;;21.10;;
3211;SDS011;1618;47.056;15.472;2024-03-08T03:28:07;21.40;;;20.40;;
3211;SDS011;1618;47.056;15.472;2024-03-08T03:30:36;21.20;;;20.20;;
3211;SDS011;1618;47.056;15.472;2024-03-08T03:33:04;20.77;;;19.77;;
3211;SDS011;1618;47.056;15.472;2024-03-08T03:35:33;20.90;;;19.90;;
3211;SDS011;1618;47.056;15.472;2024-03-08T03:38:02;21.13;;;20.13;;
3211;SDS011;1618;47.056;15.472;2024-03-08T03:40:32;21.53;;;20.53;;
3211;SDS011;1618;47.056;15.472;2024-03-08T03:42:59;22.40;;;21.30;;
3211;SDS011;1618;47.056;15.472;2024-03-08T03:45:28;21.43;;;20.43;;
3211;SDS011;1618;47.056;15.472;2024-03-08T03:47:58;21.00;;;20.00;;
3211;SDS011;1618;47.056;15.472;2024-03-08T03:50:27;20.07;;;19.13;;
3211;SDS011;1618;47.056;15.472;2024-03-08T03:52:55;21.63;;;20.63;;
3211;SDS011;1618;47.056;15.472;2024-03-08T03:55:23;21.80;;;20.80;;
3211;SDS011;1618;47.056;15.472;2024-03-08T03:57:50;22.27;;;21.17;;
3211;SDS011;1618;47.056;15.472;2024-03-08T04:00:18;22.20;;;21.20;;
3211;SDS011;1618;47.056;15.472;2024-03-08T04:02:47;23.20;;;22.10;;
3211;SDS011;1618;47.056;15.472;2024-03-08T04:05:14;25.30;;;24.10;;
3211;SDS011;1618;47.056;15.472;2024-03-08T04:07:42;24.70;;;23.60;;
3211;SDS011;1618;47.056;15.472;2024-03-08T04:10:10;26.10;;;24.80;;
3211;SDS011;1618;47.056;15.472;2024-03-08T04:12:39;25.80;;;24.50;;
3211;SDS011;1618;47.056;15.472;2024-03-08T04:15:06;24.40;;;23.20;;
3211;SDS011;1618;47.056;15.472;2024-03-08T04:17:36;23.77;;;22.67;;
3211;SDS011;1618;47.056;15.472;2024-03-08T04:20:05;23.40;;;22.30;;
3211;SDS011;1618;47.056;15.472;2024-03-08T04:22:35;25.13;;;23.93;;
3211;SDS011;1618;47.056;15.472;2024-03-08T04:25:02;23.10;;;22.00;;
3211;SDS011;1618;47.056;15.472;2024-03-08T04:27:29;23.20;;;22.10;;
3211;SDS011;1618;47.056;15.472;2024-03-08T04:29:58;22.80;;;21.70;;
3211;SDS011;1618;47.056;15.472;2024-03-08T04:32:27;22.70;;;21.60;;
3211;SDS011;1618;47.056;15.472;2024-03-08T04:34:56;22.90;;;21.80;;
3211;SDS011;1618;47.056;15.472;2024-03-08T04:37:24;23.23;;;22.13;;
3211;SDS011;1618;47.056;15.472;2024-03-08T04:39:53;23.53;;;22.43;;
3211;SDS011;1618;47.056;15.472;2024-03-08T04:42:22;23.50;;;22.40;;
3211;SDS011;1618;47.056;15.472;2024-03-08T04:44:51;23.87;;;22.73;;
3211;SDS011;1618;47.056;15.472;2024-03-08T04:47:19;23.70;;;22.60;;
3211;SDS011;1618;47.056;15.472;2024-03-08T04:49:47;24.47;;;23.27;;
3211;SDS011;1618;47.056;15.472;2024-03-08T04:52:15;24.10;;;23.00;;
3211;SDS011;1618;47.056;15.472;2024-03-08T04:54:44;23.40;;;22.30;;
3211;SDS011;1618;47.056;15.472;2024-03-08T04:57:12;22.90;;;21.80;;
3211;SDS011;1618;47.056;15.472;2024-03-08T04:59:41;22.50;;;21.40;;
3211;SDS011;1618;47.056;15.472;2024-03-08T05:02:08;22.53;;;21.43;;
3211;SDS011;1618;47.056;15.472;2024-03-08T05:04:37;21.20;;;20.20;;
3211;SDS011;1618;47.056;15.472;2024-03-08T05:07:06;23.20;;;22.20;;
3211;SDS011;1618;47.056;15.472;2024-03-08T05:09:35;24.83;;;23.63;;
3211;SDS011;1618;47.056;15.472;2024-03-08T05:12:04;26.83;;;25.63;;
3211;SDS011;1618;47.056;15.472;2024-03-08T05:14:33;25.57;;;24.47;;
3211;SDS011;1618;47.056;15.472;2024-03-08T05:17:02;25.80;;;24.70;;
3211;SDS011;1618;47.056;15.472;2024-03-08T05:19:33;26.23;;;25.03;;
3211;SDS011;1618;47.056;15.472;2024-03-08T05:22:01;26.70;;;25.50;;
3211;SDS011;1618;47.056;15.472;2024-03-08T05:24:29;26.03;;;24.83;;
3211;SDS011;1618;47.056;15.472;2024-03-08T05:26:59;27.13;;;25.93;;
3211;SDS011;1618;47.056;15.472;2024-03-08T05:29:29;26.60;;;25.40;;
3211;SDS011;1618;47.056;15.472;2024-03-08T05:31:57;25.00;;;23.90;;
3211;SDS011;1618;47.056;15.472;2024-03-08T05:34:27;24.30;;;23.20;;
3211;SDS011;1618;47.056;15.472;2024-03-08T05:36:54;22.70;;;21.70;;
3211;SDS011;1618;47.056;15.472;2024-03-08T05:39:23;22.40;;;21.40;;
3211;SDS011;1618;47.056;15.472;2024-03-08T05:41:50;23.57;;;22.47;;
3211;SDS011;1618;47.056;15.472;2024-03-08T05:44:18;23.07;;;22.07;;
3211;SDS011;1618;47.056;15.472;2024-03-08T05:46:47;24.63;;;23.53;;
3211;SDS011;1618;47.056;15.472;2024-03-08T05:49:15;22.30;;;21.30;;
3211;SDS011;1618;47.056;15.472;2024-03-08T05:51:43;23.60;;;22.50;;
3211;SDS011;1618;47.056;15.472;2024-03-08T05:54:10;24.20;;;23.10;;
3211;SDS011;1618;47.056;15.472;2024-03-08T05:56:38;23.90;;;22.80;;
3211;SDS011;1618;47.056;15.472;2024-03-08T05:59:08;23.33;;;22.33;;
3211;SDS011;1618;47.056;15.472;2024-03-08T06:01:35;22.97;;;21.97;;
3211;SDS011;1618;47.056;15.472;2024-03-08T06:04:04;24.10;;;23.00;;
3211;SDS011;1618;47.056;15.472;2024-03-08T06:06:32;23.10;;;22.10;;
3211;SDS011;1618;47.056;15.472;2024-03-08T06:08:59;22.13;;;21.13;;
3211;SDS011;1618;47.056;15.472;2024-03-08T06:11:34;20.60;;;19.70;;
3211;SDS011;1618;47.056;15.472;2024-03-08T06:14:02;23.23;;;22.23;;
3211;SDS011;1618;47.056;15.472;2024-03-08T06:16:31;22.30;;;21.30;;
3211;SDS011;1618;47.056;15.472;2024-03-08T06:18:58;20.57;;;19.67;;
3211;SDS011;1618;47.056;15.472;2024-03-08T06:21:32;22.20;;;21.20;;
3211;SDS011;1618;47.056;15.472;2024-03-08T06:24:00;22.20;;;21.20;;
3211;SDS011;1618;47.056;15.472;2024-03-08T06:26:28;22.63;;;21.63;;
3211;SDS011;1618;47.056;15.472;2024-03-08T06:28:56;21.33;;;20.33;;
3211;SDS011;1618;47.056;15.472;2024-03-08T06:31:24;21.80;;;20.80;;
3211;SDS011;1618;47.056;15.472;2024-03-08T06:33:52;22.10;;;21.10;;
3211;SDS011;1618;47.056;15.472;2024-03-08T06:36:20;21.63;;;20.63;;
3211;SDS011;1618;47.056;15.472;2024-03-08T06:38:49;22.13;;;21.13;;
3211;SDS011;1618;47.056;15.472;2024-03-08T06:41:16;21.60;;;20.60;;
3211;SDS011;1618;47.056;15.472;2024-03-08T06:43:44;20.67;;;19.77;;
3211;SDS011;1618;47.056;15.472;2024-03-08T06:46:14;20.50;;;19.60;;
3211;SDS011;1618;47.056;15.472;2024-03-08T06:48:41;20.90;;;20.00;;
3211;SDS011;1618;47.056;15.472;2024-03-08T06:51:10;21.63;;;20.63;;
3211;SDS011;1618;47.056;15.472;2024-03-08T06:53:39;23.70;;;22.60;;
3211;SDS011;1618;47.056;15.472;2024-03-08T06:56:08;23.00;;;21.90;;
3211;SDS011;1618;47.056;15.472;2024-03-08T06:58:35;23.90;;;22.80;;
3211;SDS011;1618;47.056;15.472;2024-03-08T07:01:07;24.50;;;23.40;;
3211;SDS011;1618;47.056;15.472;2024-03-08T07:03:39;25.30;;;24.10;;
3211;SDS011;1618;47.056;15.472;2024-03-08T07:06:09;25.20;;;24.00;;
3211;SDS011;1618;47.056;15.472;2024-03-08T07:08:36;25.60;;;24.40;;
3211;SDS011;1618;47.056;15.472;2024-03-08T07:11:04;23.93;;;22.83;;
3211;SDS011;1618;47.056;15.472;2024-03-08T07:13:33;24.30;;;23.20;;
3211;SDS011;1618;47.056;15.472;2024-03-08T07:16:00;25.50;;;24.30;;
3211;SDS011;1618;47.056;15.472;2024-03-08T07:18:27;25.33;;;24.13;;
3211;SDS011;1618;47.056;15.472;2024-03-08T07:20:56;25.77;;;24.57;;
3211;SDS011;1618;47.056;15.472;2024-03-08T07:23:23;26.17;;;24.87;;
3211;SDS011;1618;47.056;15.472;2024-03-08T07:26:08;26.30;;;25.00;;
3211;SDS011;1618;47.056;15.472;2024-03-08T07:28:36;25.97;;;24.70;;
3211;SDS011;1618;47.056;15.472;2024-03-08T07:31:04;26.00;;;24.80;;
3211;SDS011;1618;47.056;15.472;2024-03-08T07:33:47;24.50;;;23.30;;
3211;SDS011;1618;47.056;15.472;2024-03-08T07:36:15;25.30;;;24.10;;
3211;SDS011;1618;47.056;15.472;2024-03-08T07:38:45;24.60;;;23.40;;
3211;SDS011;1618;47.056;15.472;2024-03-08T07:41:12;26.47;;;25.17;;
3211;SDS011;1618;47.056;15.472;2024-03-08T07:43:42;25.27;;;24.07;;
3211;SDS011;1618;47.056;15.472;2024-03-08T07:46:09;25.50;;;24.30;;
3211;SDS011;1618;47.056;15.472;2024-03-08T07:48:38;25.83;;;24.63;;
3211;SDS011;1618;47.056;15.472;2024-03-08T07:51:06;24.60;;;23.40;;
3211;SDS011;1618;47.056;15.472;2024-03-08T07:53:34;26.90;;;25.60;;
3211;SDS011;1618;47.056;15.472;2024-03-08T07:56:01;26.33;;;25.03;;
3211;SDS011;1618;47.056;15.472;2024-03-08T07:58:30;26.53;;;25.23;;
3211;SDS011;1618;47.056;15.472;2024-03-08T08:00:58;69.40;;;64.40;;
3211;SDS011;1618;47.056;15.472;2024-03-08T08:03:26;25.70;;;24.50;;
3211;SDS011;1618;47.056;15.472;2024-03-08T08:05:53;25.63;;;24.43;;
3211;SDS011;1618;47.056;15.472;2024-03-08T08:08:20;25.03;;;23.83;;
3211;SDS011;1618;47.056;15.472;2024-03-08T08:10:48;25.50;;;24.30;;
3211;SDS011;1618;47.056;15.472;2024-03-08T08:13:16;26.00;;;24.80;;
3211;SDS011;1618;47.056;15.472;2024-03-08T08:15:44;26.43;;;25.13;;
3211;SDS011;1618;47.056;15.472;2024-03-08T08:18:14;26.00;;;24.70;;
3211;SDS011;1618;47.056;15.472;2024-03-08T08:20:42;25.10;;;23.90;;
3211;SDS011;1618;47.056;15.472;2024-03-08T08:23:09;25.73;;;24.43;;
3211;SDS011;1618;47.056;15.472;2024-03-08T08:25:37;26.60;;;25.30;;
3211;SDS011;1618;47.056;15.472;2024-03-08T08:28:04;26.10;;;24.80;;
3211;SDS011;1618;47.056;15.472;2024-03-08T08:30:32;26.20;;;24.90;;
3211;SDS011;1618;47.056;15.472;2024-03-08T08:33:00;27.27;;;25.90;;
3211;SDS011;1618;47.056;15.472;2024-03-08T08:35:28;26.73;;;25.43;;
3211;SDS011;1618;47.056;15.472;2024-03-08T08:37:55;26.83;;;25.43;;
3211;SDS011;1618;47.056;15.472;2024-03-08T08:40:24;26.90;;;25.50;;
3211;SDS011;1618;47.056;15.472;2024-03-08T08:42:51;26.77;;;25.40;;
3211;SDS011;1618;47.056;15.472;2024-03-08T08:45:18;26.60;;;25.30;;
3211;SDS011;1618;47.056;15.472;2024-03-08T08:47:46;27.20;;;25.80;;
3211;SDS011;1618;47.056;15.472;2024-03-08T08:50:14;28.40;;;27.00;;
3211;SDS011;1618;47.056;15.472;2024-03-08T08:52:49;27.70;;;26.30;;
3211;SDS011;1618;47.056;15.472;2024-03-08T08:55:16;28.97;;;27.47;;
3211;SDS011;1618;47.056;15.472;2024-03-08T08:57:46;27.30;;;25.93;;
3211;SDS011;1618;47.056;15.472;2024-03-08T09:00:14;27.50;;;26.10;;
3211;SDS011;1618;47.056;15.472;2024-03-08T09:02:41;27.60;;;26.10;;
3211;SDS011;1618;47.056;15.472;2024-03-08T09:05:08;27.47;;;26.07;;
3211;SDS011;1618;47.056;15.472;2024-03-08T09:07:36;28.57;;;27.07;;
3211;SDS011;1618;47.056;15.472;2024-03-08T09:10:05;28.60;;;27.10;;
3211;SDS011;1618;47.056;15.472;2024-03-08T09:12:34;28.80;;;27.30;;
3211;SDS011;1618;47.056;15.472;2024-03-08T09:15:02;29.10;;;27.60;;
3211;SDS011;1618;47.056;15.472;2024-03-08T09:17:30;29.27;;;27.77;;
3211;SDS011;1618;47.056;15.472;2024-03-08T09:19:58;30.30;;;28.70;;
3211;SDS011;1618;47.056;15.472;2024-03-08T09:22:25;30.37;;;28.67;;
3211;SDS011;1618;47.056;15.472;2024-03-08T09:24:52;31.57;;;29.77;;
3211;SDS011;1618;47.056;15.472;2024-03-08T09:27:21;31.47;;;29.70;;
3211;SDS011;1618;47.056;15.472;2024-03-08T09:29:49;31.70;;;29.90;;
3211;SDS011;1618;47.056;15.472;2024-03-08T09:32:16;32.00;;;30.20;;
3211;SDS011;1618;47.056;15.472;2024-03-08T09:34:44;31.10;;;29.37;;
3211;SDS011;1618;47.056;15.472;2024-03-08T09:37:12;31.50;;;29.70;;
3211;SDS011;1618;47.056;15.472;2024-03-08T09:39:39;32.90;;;31.00;;
3211;SDS011;1618;47.056;15.472;2024-03-08T09:42:06;33.60;;;31.70;;
3211;SDS011;1618;47.056;15.472;2024-03-08T09:44:35;32.97;;;31.07;;
3211;SDS011;1618;47.056;15.472;2024-03-08T09:47:05;32.60;;;30.70;;
3211;SDS011;1618;47.056;15.472;2024-03-08T09:49:33;32.10;;;30.30;;
3211;SDS011;1618;47.056;15.472;2024-03-08T09:52:00;32.70;;;30.80;;
3211;SDS011;1618;47.056;15.472;2024-03-08T09:54:30;32.20;;;30.30;;
3211;SDS011;1618;47.056;15.472;2024-03-08T09:56:57;32.50;;;30.50;;
3211;SDS011;1618;47.056;15.472;2024-03-08T09:59:24;32.80;;;30.80;;
3211;SDS011;1618;47.056;15.472;2024-03-08T10:02:12;33.30;;;31.30;;
3211;SDS011;1618;47.056;15.472;2024-03-08T10:04:41;33.83;;;31.83;;
3211;SDS011;1618;47.056;15.472;2024-03-08T10:07:08;32.50;;;30.50;;
3211;SDS011;1618;47.056;15.472;2024-03-08T10:09:36;31.27;;;29.17;;
3211;SDS011;1618;47.056;15.472;2024-03-08T10:12:04;31.00;;;28.90;;
3211;SDS011;1618;47.056;15.472;2024-03-08T10:14:31;31.30;;;29.20;;
3211;SDS011;1618;47.056;15.472;2024-03-08T10:16:58;31.47;;;29.37;;
3211;SDS011;1618;47.056;15.472;2024-03-08T10:19:27;31.27;;;29.17;;
3211;SDS011;1618;47.056;15.472;2024-03-08T10:21:55;31.50;;;29.40;;
3211;SDS011;1618;47.056;15.472;2024-03-08T10:24:24;31.20;;;29.10;;
3211;SDS011;1618;47.056;15.472;2024-03-08T10:26:52;31.73;;;29.53;;
3211;SDS011;1618;47.056;15.472;2024-03-08T10:29:21;32.93;;;30.63;;
3211;SDS011;1618;47.056;15.472;2024-03-08T10:31:48;32.50;;;30.20;;
3211;SDS011;1618;47.056;15.472;2024-03-08T10:34:16;32.67;;;30.37;;
3211;SDS011;1618;47.056;15.472;2024-03-08T10:36:46;33.93;;;31.53;;
3211;SDS011;1618;47.056;15.472;2024-03-08T10:39:17;33.30;;;30.90;;
3211;SDS011;1618;47.056;15.472;2024-03-08T10:41:49;33.03;;;30.73;;
3211;SDS011;1618;47.056;15.472;2024-03-08T10:44:20;32.90;;;30.50;;
3211;SDS011;1618;47.056;15.472;2024-03-08T10:46:53;33.90;;;31.70;;
3211;SDS011;1618;47.056;15.472;2024-03-08T10:49:28;33.80;;;31.70;;
3211;SDS011;1618;47.056;15.472;2024-03-08T10:52:02;34.80;;;32.60;;
3211;SDS011;1618;47.056;15.472;2024-03-08T10:54:30;34.00;;;31.80;;
3211;SDS011;1618;47.056;15.472;2024-03-08T10:56:58;33.60;;;31.50;;
3211;SDS011;1618;47.056;15.472;2024-03-08T10:59:27;33.40;;;31.30;;
3211;SDS011;1618;47.056;15.472;2024-03-08T11:01:57;33.47;;;31.37;;
3211;SDS011;1618;47.056;15.472;2024-03-08T11:04:24;33.10;;;31.00;;
3211;SDS011;1618;47.056;15.472;2024-03-08T11:06:53;34.07;;;31.87;;
3211;SDS011;1618;47.056;15.472;2024-03-08T11:09:29;36.17;;;33.87;;
3211;SDS011;1618;47.056;15.472;2024-03-08T11:12:18;36.70;;;34.30;;
3211;SDS011;1618;47.056;15.472;2024-03-08T11:14:46;36.63;;;34.13;;
3211;SDS011;1618;47.056;15.472;2024-03-08T11:17:15;37.50;;;35.00;;
3211;SDS011;1618;47.056;15.472;2024-03-08T11:19:47;39.90;;;37.30;;
3211;SDS011;1618;47.056;15.472;2024-03-08T11:22:21;38.97;;;36.47;;
3211;SDS011;1618;47.056;15.472;2024-03-08T11:24:53;38.73;;;36.13;;
3211;SDS011;1618;47.056;15.472;2024-03-08T11:27:21;35.90;;;33.37;;
3211;SDS011;1618;47.056;15.472;2024-03-08T11:30:01;37.20;;;34.70;;
3211;SDS011;1618;47.056;15.472;2024-03-08T11:32:43;38.10;;;35.50;;
3211;SDS011;1618;47.056;15.472;2024-03-08T11:35:17;39.23;;;36.53;;
3211;SDS011;1618;47.056;15.472;2024-03-08T11:37:45;39.20;;;36.50;;
3211;SDS011;1618;47.056;15.472;2024-03-08T11:40:14;38.60;;;35.90;;
3211;SDS011;1618;47.056;15.472;2024-03-08T11:42:44;36.23;;;33.63;;
3211;SDS011;1618;47.056;15.472;2024-03-08T11:45:13;36.73;;;34.13;;
3211;SDS011;1618;47.056;15.472;2024-03-08T11:47:41;35.77;;;33.27;;
3211;SDS011;1618;47.056;15.472;2024-03-08T11:50:11;36.73;;;34.13;;
3211;SDS011;1618;47.056;15.472;2024-03-08T11:52:39;40.53;;;37.83;;
3211;SDS011;1618;47.056;15.472;2024-03-08T11:55:08;37.67;;;35.07;;
3211;SDS011;1618;47.056;15.472;2024-03-08T11:57:39;37.23;;;34.70;;
3211;SDS011;1618;47.056;15.472;2024-03-08T12:00:14;36.77;;;34.17;;
3211;SDS011;1618;47.056;15.472;2024-03-08T12:02:52;39.47;;;36.77;;
3211;SDS011;1618;47.056;15.472;2024-03-08T12:05:27;39.30;;;36.60;;
3211;SDS011;1618;47.056;15.472;2024-03-08T12:07:56;38.20;;;35.50;;
3211;SDS011;1618;47.056;15.472;2024-03-08T12:10:23;38.23;;;35.53;;
3211;SDS011;1618;47.056;15.472;2024-03-08T12:12:53;38.50;;;35.83;;
3211;SDS011;1618;47.056;15.472;2024-03-08T12:15:21;37.93;;;35.33;;
3211;SDS011;1618;47.056;15.472;2024-03-08T12:17:50;35.40;;;32.80;;
3211;SDS011;1618;47.056;15.472;2024-03-08T12:20:20;34.47;;;31.97;;
3211;SDS011;1618;47.056;15.472;2024-03-08T12:22:49;35.50;;;32.90;;
3211;SDS011;1618;47.056;15.472;2024-03-08T12:25:26;35.60;;;33.10;;
3211;SDS011;1618;47.056;15.472;2024-03-08T12:30:49;36.13;;;33.63;;
3211;SDS011;1618;47.056;15.472;2024-03-08T12:33:19;38.33;;;35.73;;
3211;SDS011;1618;47.056;15.472;2024-03-08T12:35:50;37.57;;;34.97;;
3211;SDS011;1618;47.056;15.472;2024-03-08T12:38:20;36.73;;;34.23;;
3211;SDS011;1618;47.056;15.472;2024-03-08T12:40:54;37.27;;;34.67;;
3211;SDS011;1618;47.056;15.472;2024-03-08T12:43:22;36.90;;;34.30;;
3211;SDS011;1618;47.056;15.472;2024-03-08T12:45:51;38.50;;;35.80;;
3211;SDS011;1618;47.056;15.472;2024-03-08T12:48:21;37.10;;;34.50;;
3211;SDS011;1618;47.056;15.472;2024-03-08T12:50:48;37.30;;;34.60;;
3211;SDS011;1618;47.056;15.472;2024-03-08T12:53:17;34.80;;;32.40;;
3211;SDS011;1618;47.056;15.472;2024-03-08T12:55:44;35.70;;;33.20;;
3211;SDS011;1618;47.056;15.472;2024-03-08T12:58:11;34.80;;;32.20;;
3211;SDS011;1618;47.056;15.472;2024-03-08T13:00:39;35.20;;;32.60;;
3211;SDS011;1618;47.056;15.472;2024-03-08T13:03:09;36.27;;;33.57;;
3211;SDS011;1618;47.056;15.472;2024-03-08T13:05:37;36.00;;;33.30;;
3211;SDS011;1618;47.056;15.472;2024-03-08T13:08:05;36.20;;;33.60;;
3211;SDS011;1618;47.056;15.472;2024-03-08T13:10:37;35.20;;;32.50;;
3211;SDS011;1618;47.056;15.472;2024-03-08T13:13:05;32.90;;;30.40;;
3211;SDS011;1618;47.056;15.472;2024-03-08T13:15:35;33.20;;;30.70;;
3211;SDS011;1618;47.056;15.472;2024-03-08T13:18:03;32.90;;;30.40;;
3211;SDS011;1618;47.056;15.472;2024-03-08T13:20:38;33.60;;;31.20;;
3211;SDS011;1618;47.056;15.472;2024-03-08T13:23:09;34.20;;;31.70;;
3211;SDS011;1618;47.056;15.472;2024-03-08T13:25:42;34.33;;;31.83;;
3211;SDS011;1618;47.056;15.472;2024-03-08T13:28:14;33.30;;;30.90;;
3211;SDS011;1618;47.056;15.472;2024-03-08T13:30:42;31.93;;;29.43;;
3211;SDS011;1618;47.056;15.472;2024-03-08T13:33:15;32.30;;;29.80;;
3211;SDS011;1618;47.056;15.472;2024-03-08T13:35:46;32.30;;;29.70;;
3211;SDS011;1618;47.056;15.472;2024-03-08T13:38:16;31.80;;;29.30;;
3211;SDS011;1618;47.056;15.472;2024-03-08T13:40:46;32.10;;;29.50;;
3211;SDS011;1618;47.056;15.472;2024-03-08T13:43:14;32.50;;;29.90;;
3211;SDS011;1618;47.056;15.472;2024-03-08T13:45:44;31.80;;;29.30;;
3211;SDS011;1618;47.056;15.472;2024-03-08T13:48:13;32.03;;;29.53;;
3211;SDS011;1618;47.056;15.472;2024-03-08T13:50:50;33.00;;;30.50;;
3211;SDS011;1618;47.056;15.472;2024-03-08T13:53:18;32.10;;;29.60;;
3211;SDS011;1618;47.056;15.472;2024-03-08T13:55:49;31.97;;;29.57;;
3211;SDS011;1618;47.056;15.472;2024-03-08T13:58:18;32.10;;;29.70;;
3211;SDS011;1618;47.056;15.472;2024-03-08T14:00:46;32.00;;;29.60;;
3211;SDS011;1618;47.056;15.472;2024-03-08T14:03:17;32.00;;;29.60;;
3211;SDS011;1618;47.056;15.472;2024-03-08T14:08:45;32.40;;;30.00;;
3211;SDS011;1618;47.056;15.472;2024-03-08T14:11:19;31.93;;;29.53;;
3211;SDS011;1618;47.056;15.472;2024-03-08T14:14:01;31.27;;;28.87;;
3211;SDS011;1618;47.056;15.472;2024-03-08T14:16:33;31.10;;;28.60;;
3211;SDS011;1618;47.056;15.472;2024-03-08T14:19:23;30.50;;;28.00;;
3211;SDS011;1618;47.056;15.472;2024-03-08T14:22:01;30.50;;;27.90;;
3211;SDS011;1618;47.056;15.472;2024-03-08T14:27:48;30.77;;;28.17;;
3211;SDS011;1618;47.056;15.472;2024-03-08T14:30:35;31.20;;;28.70;;
3211;SDS011;1618;47.056;15.472;2024-03-08T14:33:17;30.70;;;28.20;;
3211;SDS011;1618;47.056;15.472;2024-03-08T14:35:47;30.80;;;28.30;;
3211;SDS011;1618;47.056;15.472;2024-03-08T14:38:14;31.00;;;28.50;;
3211;SDS011;1618;47.056;15.472;2024-03-08T14:40:44;30.30;;;27.90;;
3211;SDS011;1618;47.056;15.472;2024-03-08T14:43:13;30.80;;;28.30;;
3211;SDS011;1618;47.056;15.472;2024-03-08T14:45:42;31.00;;;28.50;;
3211;SDS011;1618;47.056;15.472;2024-03-08T14:48:13;31.17;;;28.87;;
3211;SDS011;1618;47.056;15.472;2024-03-08T14:50:43;31.20;;;28.80;;
3211;SDS011;1618;47.056;15.472;2024-03-08T14:53:31;31.03;;;28.63;;
3211;SDS011;1618;47.056;15.472;2024-03-08T14:56:01;31.30;;;29.00;;